createdAt,value
2018-09-23T00:01:48.946Z,2.20
2018-09-23T00:05:00.636Z,1.98
2018-09-23T00:08:12.395Z,2.42
2018-09-23T00:11:24.251Z,1.90
2018-09-23T00:14:35.869Z,2.20
2018-09-23T00:17:47.991Z,2.30
2018-09-23T00:20:59.801Z,2.20
2018-09-23T00:24:11.337Z,2.25
2018-09-23T00:27:23.099Z,2.08
2018-09-23T00:30:35.168Z,2.80
2018-09-23T00:33:46.597Z,2.50
2018-09-23T00:36:58.387Z,1.80
2018-09-23T00:40:09.600Z,2.20
2018-09-23T00:43:21.364Z,2.17
2018-09-23T00:46:33.404Z,2.50
2018-09-23T00:49:44.937Z,2.47
2018-09-23T00:52:56.820Z,2.05
2018-09-23T00:56:09.030Z,2.10
2018-09-23T00:59:20.429Z,2.72
2018-09-23T01:02:32.248Z,2.60
2018-09-23T01:05:44.148Z,2.60
2018-09-23T01:08:56.301Z,3.42
2018-09-23T01:12:07.958Z,2.02
2018-09-23T01:15:19.944Z,1.95
2018-09-23T01:18:31.500Z,2.70
2018-09-23T01:21:43.284Z,2.05
2018-09-23T01:24:55.124Z,2.87
2018-09-23T01:28:07.215Z,2.33
2018-09-23T01:31:19.217Z,1.85
2018-09-23T01:34:30.423Z,2.30
2018-09-23T01:37:42.029Z,2.50
2018-09-23T01:40:53.563Z,3.50
2018-09-23T01:44:05.470Z,2.30
2018-09-23T01:47:18.372Z,2.42
2018-09-23T01:50:30.044Z,3.05
2018-09-23T01:53:41.836Z,1.90
2018-09-23T01:56:53.759Z,2.62
2018-09-23T02:00:06.420Z,2.00
2018-09-23T02:03:18.380Z,2.45
2018-09-23T02:06:30.448Z,1.80
2018-09-23T02:09:42.502Z,3.05
2018-09-23T02:12:54.094Z,2.87
2018-09-23T02:16:06.183Z,2.83
2018-09-23T02:19:17.956Z,2.90
2018-09-23T02:22:29.862Z,2.45
2018-09-23T02:25:41.573Z,2.25
2018-09-23T02:28:53.525Z,2.02
2018-09-23T02:32:05.821Z,2.58
2018-09-23T02:35:17.348Z,1.85
2018-09-23T02:38:29.068Z,2.45
2018-09-23T02:41:41.069Z,2.70
2018-09-23T02:44:52.519Z,1.87
2018-09-23T02:48:05.710Z,2.62
2018-09-23T02:51:17.373Z,2.62
2018-09-23T02:54:29.159Z,1.90
2018-09-23T02:57:40.884Z,2.30
2018-09-23T03:00:52.619Z,2.42
2018-09-23T03:04:04.732Z,2.40
2018-09-23T03:07:16.425Z,2.92
2018-09-23T03:10:28.104Z,1.95
2018-09-23T03:13:39.933Z,2.37
2018-09-23T03:16:51.459Z,2.22
2018-09-23T03:20:03.316Z,2.10
2018-09-23T03:23:14.972Z,2.30
2018-09-23T03:26:26.823Z,2.20
2018-09-23T03:29:38.793Z,1.98
2018-09-23T03:32:50.965Z,1.92
2018-09-23T03:36:02.397Z,2.40
2018-09-23T03:39:14.111Z,2.83
2018-09-23T03:42:26.389Z,2.30
2018-09-23T03:45:37.984Z,2.00
2018-09-23T03:48:49.614Z,2.35
2018-09-23T03:52:01.526Z,2.70
2018-09-23T03:55:13.397Z,2.30
2018-09-23T03:58:25.192Z,2.50
2018-09-23T04:01:37.301Z,2.17
2018-09-23T04:04:48.887Z,2.58
2018-09-23T04:08:00.505Z,2.15
2018-09-23T04:11:12.528Z,2.42
2018-09-23T04:14:25.201Z,2.05
2018-09-23T04:17:37.393Z,2.35
2018-09-23T04:20:48.932Z,2.85
2018-09-23T04:24:02.306Z,2.08
2018-09-23T04:27:16.363Z,2.30
2018-09-23T04:30:32.648Z,2.35
2018-09-23T04:33:44.693Z,2.42
2018-09-23T04:36:56.346Z,2.27
2018-09-23T04:40:07.940Z,2.42
2018-09-23T04:43:19.721Z,2.52
2018-09-23T04:46:31.703Z,2.72
2018-09-23T04:49:43.392Z,1.95
2018-09-23T04:52:55.243Z,2.67
2018-09-23T04:56:07.047Z,2.20
2018-09-23T04:59:18.888Z,2.58
2018-09-23T05:02:30.315Z,3.08
2018-09-23T05:05:42.260Z,3.30
2018-09-23T05:08:54.284Z,1.98
2018-09-23T05:12:06.006Z,2.50
2018-09-23T05:15:17.837Z,2.35
2018-09-23T05:18:29.838Z,2.00
2018-09-23T05:21:41.783Z,2.22
2018-09-23T05:24:53.372Z,2.72
2018-09-23T05:28:05.536Z,2.12
2018-09-23T05:31:17.208Z,2.15
2018-09-23T05:34:29.342Z,1.90
2018-09-23T05:37:41.301Z,2.08
2018-09-23T05:40:52.543Z,2.12
2018-09-23T05:44:04.561Z,2.60
2018-09-23T05:47:16.358Z,2.37
2018-09-23T05:50:28.446Z,2.30
2018-09-23T05:53:40.379Z,2.00
2018-09-23T05:56:51.942Z,3.22
2018-09-23T06:00:04.023Z,2.20
2018-09-23T06:03:16.010Z,2.77
2018-09-23T06:06:27.590Z,2.77
2018-09-23T06:09:39.458Z,2.70
2018-09-23T06:12:51.290Z,2.45
2018-09-23T06:16:02.855Z,3.33
2018-09-23T06:19:14.497Z,2.35
2018-09-23T06:22:26.558Z,2.70
2018-09-23T06:25:38.415Z,2.60
2018-09-23T06:28:50.349Z,4.55
2018-09-23T06:32:02.141Z,3.37
2018-09-23T06:35:14.957Z,3.33
2018-09-23T06:38:26.433Z,3.30
2018-09-23T06:41:38.412Z,2.92
2018-09-23T06:44:50.147Z,3.45
2018-09-23T06:48:02.038Z,3.52
2018-09-23T06:51:15.495Z,2.55
2018-09-23T06:54:27.907Z,3.12
2018-09-23T06:57:40.135Z,3.35
2018-09-23T07:00:51.834Z,3.33
2018-09-23T07:04:03.929Z,2.70
2018-09-23T07:07:15.593Z,2.30
2018-09-23T07:10:26.866Z,2.22
2018-09-23T07:13:39.016Z,3.75
2018-09-23T07:16:50.622Z,2.80
2018-09-23T07:20:02.379Z,2.50
2018-09-23T07:23:14.315Z,2.17
2018-09-23T07:26:26.115Z,2.62
2018-09-23T07:29:37.869Z,2.67
2018-09-23T07:32:49.569Z,2.00
2018-09-23T07:36:01.837Z,2.35
2018-09-23T07:39:13.950Z,4.20
2018-09-23T07:42:25.756Z,3.00
2018-09-23T07:45:37.595Z,2.67
2018-09-23T07:48:48.881Z,2.35
2018-09-23T07:52:00.739Z,4.55
2018-09-23T07:55:12.337Z,2.83
2018-09-23T07:58:24.091Z,2.67
2018-09-23T08:01:35.550Z,2.02
2018-09-23T08:04:47.160Z,2.33
2018-09-23T08:07:59.078Z,2.15
2018-09-23T08:11:10.728Z,2.50
2018-09-23T08:14:23.002Z,3.65
2018-09-23T08:17:34.447Z,2.67
2018-09-23T08:20:46.198Z,1.90
2018-09-23T08:23:58.013Z,2.85
2018-09-23T08:27:10.040Z,3.27
2018-09-23T08:30:21.728Z,2.87
2018-09-23T08:33:33.585Z,2.50
2018-09-23T08:36:45.612Z,2.35
2018-09-23T08:39:57.798Z,2.37
2018-09-23T08:43:09.721Z,2.00
2018-09-23T08:46:21.406Z,2.60
2018-09-23T08:49:33.271Z,2.00
2018-09-23T08:52:45.094Z,2.35
2018-09-23T08:55:57.314Z,3.10
2018-09-23T08:59:08.630Z,2.67
2018-09-23T09:02:20.432Z,2.27
2018-09-23T09:05:32.534Z,2.70
2018-09-23T09:08:44.073Z,2.60
2018-09-23T09:11:55.640Z,2.42
2018-09-23T09:15:07.780Z,2.50
2018-09-23T09:18:19.065Z,2.75
2018-09-23T09:21:30.649Z,2.72
2018-09-23T09:24:42.640Z,2.30
2018-09-23T09:27:54.346Z,2.60
2018-09-23T09:31:05.872Z,2.70
2018-09-23T09:34:18.271Z,2.77
2018-09-23T09:37:29.630Z,2.65
2018-09-23T09:40:41.586Z,2.10
2018-09-23T09:43:53.118Z,2.42
2018-09-23T09:47:04.888Z,2.45
2018-09-23T09:50:17.054Z,3.30
2018-09-23T09:53:28.486Z,2.55
2018-09-23T09:56:42.932Z,1.90
2018-09-23T09:59:54.439Z,3.50
2018-09-23T10:03:07.066Z,2.55
2018-09-23T10:06:18.929Z,2.40
2018-09-23T10:09:31.236Z,2.92
2018-09-23T10:12:43.287Z,2.55
2018-09-23T10:15:55.099Z,2.60
2018-09-23T10:19:07.320Z,2.72
2018-09-23T10:22:18.624Z,3.27
2018-09-23T10:25:30.568Z,2.20
2018-09-23T10:28:42.179Z,2.80
2018-09-23T10:31:54.104Z,3.87
2018-09-23T10:35:06.135Z,3.00
2018-09-23T10:38:18.072Z,2.62
2018-09-23T10:41:29.407Z,2.95
2018-09-23T10:44:41.040Z,3.15
2018-09-23T10:47:52.649Z,2.80
2018-09-23T10:51:04.541Z,2.37
2018-09-23T10:54:16.108Z,2.72
2018-09-23T10:57:27.738Z,2.87
2018-09-23T11:00:39.690Z,2.40
2018-09-23T11:03:51.690Z,3.30
2018-09-23T11:07:03.076Z,3.02
2018-09-23T11:10:15.080Z,2.50
2018-09-23T11:13:26.831Z,3.35
2018-09-23T11:16:38.581Z,3.27
2018-09-23T11:19:50.754Z,3.10
2018-09-23T11:23:02.250Z,3.62
2018-09-23T11:26:13.903Z,3.80
2018-09-23T11:29:25.299Z,3.40
2018-09-23T11:32:37.371Z,3.35
2018-09-23T11:35:49.454Z,3.02
2018-09-23T11:39:01.457Z,3.08
2018-09-23T11:42:13.071Z,3.62
2018-09-23T11:45:25.270Z,3.40
2018-09-23T11:48:36.519Z,3.98
2018-09-23T11:51:48.120Z,3.30
2018-09-23T11:55:00.069Z,3.85
2018-09-23T11:58:11.947Z,4.95
2018-09-23T12:01:23.743Z,3.70
2018-09-23T12:04:35.191Z,3.52
2018-09-23T12:07:46.891Z,3.30
2018-09-23T12:10:58.880Z,3.25
2018-09-23T12:14:11.417Z,3.70
2018-09-23T12:17:23.258Z,3.50
2018-09-23T12:20:35.419Z,3.83
2018-09-23T12:23:47.154Z,3.42
2018-09-23T12:27:00.075Z,3.42
2018-09-23T12:30:12.658Z,2.83
2018-09-23T12:33:24.249Z,3.27
2018-09-23T12:36:36.155Z,3.83
2018-09-23T12:39:48.698Z,3.85
2018-09-23T12:43:01.056Z,2.90
2018-09-23T12:46:12.732Z,3.80
2018-09-23T12:49:24.251Z,3.35
2018-09-23T12:52:36.226Z,3.70
2018-09-23T12:55:48.172Z,3.35
2018-09-23T12:59:00.725Z,2.92
2018-09-23T13:02:12.265Z,3.65
2018-09-23T13:05:24.295Z,3.92
2018-09-23T13:08:35.845Z,3.20
2018-09-23T13:11:48.887Z,3.22
2018-09-23T13:15:00.391Z,3.33
2018-09-23T13:18:12.109Z,4.58
2018-09-23T13:21:23.695Z,3.70
2018-09-23T13:24:35.398Z,3.67
2018-09-23T13:27:47.671Z,3.50
2018-09-23T13:31:00.645Z,3.35
2018-09-23T13:34:13.088Z,3.80
2018-09-23T13:37:25.884Z,3.42
2018-09-23T13:40:37.628Z,4.22
2018-09-23T13:43:49.615Z,3.75
2018-09-23T13:47:02.279Z,3.80
2018-09-23T13:50:15.000Z,3.30
2018-09-23T13:53:27.893Z,3.20
2018-09-23T13:56:40.934Z,3.30
2018-09-23T13:59:53.960Z,3.52
2018-09-23T14:03:07.110Z,3.58
2018-09-23T14:06:19.845Z,3.70
2018-09-23T14:09:32.661Z,3.87
2018-09-23T14:12:44.357Z,4.30
2018-09-23T14:15:56.286Z,3.75
2018-09-23T14:19:08.607Z,3.30
2018-09-23T14:22:20.278Z,3.83
2018-09-23T14:25:32.010Z,3.60
2018-09-23T14:28:43.920Z,3.37
2018-09-23T14:31:56.185Z,3.30
2018-09-23T14:35:10.111Z,3.20
2018-09-23T14:38:24.649Z,4.08
2018-09-23T14:41:38.103Z,3.85
2018-09-23T14:44:50.935Z,3.40
2018-09-23T14:48:03.606Z,3.67
2018-09-23T14:51:15.652Z,4.17
2018-09-23T14:54:28.547Z,4.65
2018-09-23T14:57:41.543Z,3.87
2018-09-23T15:00:53.830Z,4.55
2018-09-23T15:04:06.294Z,3.85
2018-09-23T15:07:20.763Z,4.22
2018-09-23T15:10:34.379Z,3.95
2018-09-23T15:13:46.749Z,4.55
2018-09-23T15:17:00.189Z,4.03
2018-09-23T15:20:12.541Z,3.90
2018-09-23T15:23:25.558Z,4.00
2018-09-23T15:26:38.370Z,4.55
2018-09-23T15:29:51.184Z,4.25
2018-09-23T15:33:04.226Z,3.12
2018-09-23T15:36:16.971Z,3.35
2018-09-23T15:39:29.684Z,3.40
2018-09-23T15:42:42.948Z,3.55
2018-09-23T15:45:55.256Z,2.90
2018-09-23T15:49:08.310Z,3.33
2018-09-23T15:52:22.195Z,3.30
2018-09-23T15:55:36.109Z,2.70
2018-09-23T15:58:49.210Z,3.02
2018-09-23T16:02:01.728Z,3.42
2018-09-23T16:05:30.892Z,5.87
2018-09-23T16:08:43.210Z,3.30
2018-09-23T16:11:55.057Z,2.98
2018-09-23T16:15:06.876Z,3.02
2018-09-23T16:18:18.464Z,3.47
2018-09-23T16:21:30.093Z,3.70
2018-09-23T16:24:41.631Z,3.80
2018-09-23T16:27:52.790Z,3.70
2018-09-23T16:31:04.428Z,2.77
2018-09-23T16:34:15.981Z,3.20
2018-09-23T16:37:27.676Z,3.35
2018-09-23T16:40:39.549Z,3.83
2018-09-23T16:43:51.212Z,3.95
2018-09-23T16:47:02.677Z,3.60
2018-09-23T16:50:14.511Z,3.62
2018-09-23T16:53:26.162Z,3.60
2018-09-23T16:56:43.208Z,2.98
2018-09-23T16:59:54.718Z,4.15
2018-09-23T17:03:06.487Z,4.35
2018-09-23T17:06:19.503Z,5.45
2018-09-23T17:09:31.673Z,6.00
2018-09-23T17:12:44.594Z,3.47
2018-09-23T17:15:56.501Z,3.50
2018-09-23T17:19:09.668Z,4.80
2018-09-23T17:22:21.465Z,3.37
2018-09-23T17:25:34.689Z,3.77
2018-09-23T17:28:47.064Z,3.30
2018-09-23T17:32:00.269Z,3.80
2018-09-23T17:35:13.107Z,3.33
2018-09-23T17:38:25.265Z,3.08
2018-09-23T17:41:36.801Z,3.67
2018-09-23T17:44:48.604Z,4.47
2018-09-23T17:47:59.980Z,4.70
2018-09-23T17:51:11.625Z,5.45
2018-09-23T17:54:24.216Z,4.78
2018-09-23T17:57:35.629Z,4.70
2018-09-23T18:00:46.728Z,4.70
2018-09-23T18:03:57.797Z,3.92
2018-09-23T18:07:09.876Z,4.25
2018-09-23T18:10:21.938Z,4.50
2018-09-23T18:13:33.715Z,4.20
2018-09-23T18:16:45.400Z,4.45
2018-09-23T18:19:56.615Z,3.70
2018-09-23T18:23:08.923Z,3.60
2018-09-23T18:26:20.772Z,4.28
2018-09-23T18:29:32.523Z,3.58
2018-09-23T18:32:44.391Z,3.77
2018-09-23T18:35:58.018Z,2.92
2018-09-23T18:39:11.176Z,3.45
2018-09-23T18:42:22.848Z,3.60
2018-09-23T18:45:35.030Z,3.42
2018-09-23T18:48:46.596Z,3.90
2018-09-23T18:51:58.429Z,3.80
2018-09-23T18:55:15.545Z,4.15
2018-09-23T18:58:27.206Z,3.40
2018-09-23T19:01:39.516Z,3.85
2018-09-23T19:04:51.333Z,3.20
2018-09-23T19:08:03.220Z,4.42
2018-09-23T19:11:14.624Z,3.33
2018-09-23T19:14:26.484Z,3.50
2018-09-23T19:17:38.486Z,4.75
2018-09-23T19:20:50.551Z,3.65
2018-09-23T19:24:02.380Z,3.90
2018-09-23T19:27:13.719Z,3.70
2018-09-23T19:30:25.267Z,4.25
2018-09-23T19:33:42.261Z,4.35
2018-09-23T19:36:54.806Z,2.90
2018-09-23T19:40:06.291Z,3.35
2018-09-23T19:43:18.033Z,3.25
2018-09-23T19:46:29.798Z,3.25
2018-09-23T19:49:41.328Z,3.37
2018-09-23T19:52:53.171Z,3.62
2018-09-23T19:56:05.374Z,4.00
2018-09-23T20:03:00.350Z,3.58
2018-09-23T20:06:11.590Z,4.83
2018-09-23T20:09:23.042Z,3.85
2018-09-23T20:12:34.752Z,3.60
2018-09-23T20:15:46.806Z,6.10
2018-09-23T20:18:58.680Z,4.10
2018-09-23T20:22:11.577Z,3.72
2018-09-23T20:25:23.506Z,4.55
2018-09-23T20:28:35.207Z,4.85
2018-09-23T20:31:47.021Z,3.90
2018-09-23T20:34:58.079Z,3.70
2018-09-23T20:38:09.108Z,4.45
2018-09-23T20:41:21.121Z,4.45
2018-09-23T20:44:33.070Z,5.50
2018-09-23T20:47:45.718Z,3.80
2018-09-23T20:50:58.122Z,3.08
2018-09-23T20:54:09.669Z,4.12
2018-09-23T20:57:21.210Z,3.75
2018-09-23T21:00:32.907Z,3.70
2018-09-23T21:03:44.915Z,3.10
2018-09-23T21:06:56.548Z,3.92
2018-09-23T21:10:08.299Z,3.42
2018-09-23T21:13:20.269Z,5.50
2018-09-23T21:16:31.974Z,3.62
2018-09-23T21:19:43.658Z,3.50
2018-09-23T21:22:54.714Z,4.55
2018-09-23T21:26:06.776Z,4.62
2018-09-23T21:29:18.732Z,3.10
2018-09-23T21:32:30.596Z,4.03
2018-09-23T21:35:42.536Z,3.75
2018-09-23T21:38:54.445Z,3.95
2018-09-23T21:42:06.150Z,3.67
2018-09-23T21:45:18.020Z,3.58
2018-09-23T21:48:29.407Z,5.40
2018-09-23T21:51:40.932Z,3.90
2018-09-23T21:54:52.875Z,4.28
2018-09-23T21:58:04.982Z,3.45
2018-09-23T22:01:16.339Z,3.87
2018-09-23T22:04:28.534Z,6.17
2018-09-23T22:07:40.090Z,3.65
2018-09-23T22:10:51.742Z,4.85
2018-09-23T22:14:03.650Z,4.35
2018-09-23T22:17:15.376Z,5.03
2018-09-23T22:20:26.978Z,6.83
2018-09-23T22:23:37.977Z,4.33
2018-09-23T22:26:50.890Z,4.55
2018-09-23T22:30:02.790Z,4.78
2018-09-23T22:33:14.813Z,5.37
2018-09-23T22:36:26.725Z,6.47
2018-09-23T22:39:38.547Z,4.03
2018-09-23T22:42:50.296Z,5.60
2018-09-23T22:46:02.565Z,5.78
2018-09-23T22:49:14.509Z,4.22
2018-09-23T22:52:26.015Z,4.37
2018-09-23T22:55:37.932Z,4.45
2018-09-23T22:58:49.920Z,3.72
2018-09-23T23:02:01.723Z,3.70
2018-09-23T23:05:13.647Z,5.45
2018-09-23T23:08:25.300Z,5.33
2018-09-23T23:11:37.133Z,3.62
2018-09-23T23:14:48.893Z,5.20
2018-09-23T23:18:00.198Z,3.62
2018-09-23T23:21:12.156Z,4.12
2018-09-23T23:24:24.918Z,4.17
2018-09-23T23:27:36.760Z,4.87
2018-09-23T23:30:48.410Z,5.53
2018-09-23T23:34:00.316Z,5.50
2018-09-23T23:37:12.267Z,4.22
2018-09-23T23:40:24.178Z,4.00
2018-09-23T23:43:35.968Z,5.17
2018-09-23T23:46:47.875Z,4.50
2018-09-23T23:50:00.043Z,4.28
2018-09-23T23:53:11.450Z,3.60
2018-09-23T23:56:23.400Z,3.20
2018-09-23T23:59:34.536Z,3.67
